Dades meteomassalio
Diari Summary for Noviembre 6, 2017 Units:  Metric    English   Both
« Previous Day
Next Day »
Diari Semanal Mensual Anual Personalitzat
  Maxima: Minima: Mijana:
Temperatura: -17.8 °C -14.1 °C -12.3 °C
Rosada: -17.8 °C -17.3 °C -16.1 °C
Humitat: Humidity % 45 % 63 %
Velocitat del vent: 0 km/h 29.8 km/h 64.7 km/h
Racha vent: 0 km/h - -
Vent:- - WSW
Pressio: 0 hPa 34554.1 hPa -
Pluja: 0 mm    
Historical Graphs
 
 
Tabular Data for Noviembre 6, 2017
Time Temperature Dew Point Pressure Wind Wind Speed Wind Gust Humidity Rainfall Rate (Hourly) solar Conditions
-17.8 °C -17.8 °C 0 hPa Calm     Humidity % 0 mm SolarRadiationWatts/m^2 W/m2 Conditions
00:03 -12.2 °C -15 °C 34645.6 hPa WSW 86.4 km/h 86.4 km/h 71 % 0 mm 0.0 W/m2 RA
00:08 -12.2 °C -15.1 °C 34635.4 hPa SSW 65.5 km/h 65.5 km/h 70 % 0 mm 0.0 W/m2 CLR
00:13 -12.2 °C -15.1 °C 34645.6 hPa SSW 68.6 km/h 68.6 km/h 70 % 0 mm 0.0 W/m2 CLR
00:18 -12.2 °C -15.1 °C 34645.6 hPa SW 80.5 km/h 80.5 km/h 70 % 0 mm 0.0 W/m2 CLR
00:23 -12.2 °C -15.1 °C 34645.6 hPa SSW 59.5 km/h 59.5 km/h 70 % 0 mm 0.0 W/m2 CLR
00:28 -12.2 °C -15.1 °C 34645.6 hPa WSW 65.5 km/h 65.5 km/h 70 % 0 mm 0.0 W/m2 CLR
00:33 -12.2 °C -15.1 °C 34659.1 hPa SW 56.6 km/h 56.6 km/h 70 % 0 mm 0.0 W/m2 CLR
00:38 -12.2 °C -15.1 °C 34659.1 hPa WSW 53.6 km/h 53.6 km/h 70 % 0 mm 0.0 W/m2 CLR
00:43 -12.2 °C -15.1 °C 34659.1 hPa WSW 59.5 km/h 59.5 km/h 70 % 0 mm 0.0 W/m2 CLR
00:48 -12.6 °C -15.3 °C 34659.1 hPa SW 62.6 km/h 62.6 km/h 71 % 0 mm 0.0 W/m2 CLR
00:53 -12.6 °C -15.3 °C 34659.1 hPa WSW 68.6 km/h 68.6 km/h 71 % 0 mm 0.0 W/m2 CLR
00:58 -12.6 °C -15.3 °C 34659.1 hPa SSW 50.7 km/h 50.7 km/h 71 % 0 mm 0.0 W/m2 CLR
01:03 -12.6 °C -15.3 °C 34659.1 hPa SW 56.6 km/h 56.6 km/h 71 % 0 mm 0.0 W/m2 CLR
01:08 -12.6 °C -15.3 °C 34645.6 hPa SW 53.6 km/h 53.6 km/h 71 % 0 mm 0.0 W/m2 CLR
01:13 -12.2 °C -15 °C 34659.1 hPa SW 59.5 km/h 59.5 km/h 71 % 0 mm 0.0 W/m2 CLR
01:18 -12.6 °C -15.2 °C 34659.1 hPa SSW 50.7 km/h 50.7 km/h 72 % 0 mm 0.0 W/m2 CLR
01:23 -12.6 °C -15.2 °C 34659.1 hPa SW 38.8 km/h 38.8 km/h 72 % 0 mm 0.0 W/m2 CLR
01:28 -12.6 °C -15.2 °C 34659.1 hPa WSW 72.6 km/h 72.6 km/h 72 % 0 mm 0.0 W/m2 CLR
01:33 -12.6 °C -15.2 °C 34659.1 hPa WSW 68.6 km/h 68.6 km/h 72 % 0 mm 0.0 W/m2 CLR
01:38 -12.6 °C -15.2 °C 34659.1 hPa SSW 53.6 km/h 53.6 km/h 72 % 0 mm 0.0 W/m2 CLR
01:43 -12.6 °C -15.2 °C 34659.1 hPa SW 56.6 km/h 56.6 km/h 72 % 0 mm 0.0 W/m2 CLR
01:48 -12.6 °C -15.2 °C 34659.1 hPa SW 65.5 km/h 65.5 km/h 72 % 0 mm 0.0 W/m2 CLR
01:53 -12.6 °C -15.3 °C 34659.1 hPa SSW 56.6 km/h 56.6 km/h 71 % 0 mm 0.0 W/m2 CLR
01:58 -12.6 °C -15.3 °C 34645.6 hPa WSW 56.6 km/h 56.6 km/h 71 % 0 mm 0.0 W/m2 CLR
02:03 -12.6 °C -15.3 °C 34645.6 hPa SSW 50.7 km/h 50.7 km/h 71 % 0 mm 0.0 W/m2 CLR
02:08 -12.6 °C -15.2 °C 34645.6 hPa SW 74.5 km/h 74.5 km/h 72 % 0 mm 0.0 W/m2 CLR
02:13 -12.6 °C -15.2 °C 34645.6 hPa SSW 65.5 km/h 65.5 km/h 72 % 0 mm 0.0 W/m2 CLR
02:18 -12.6 °C -15.2 °C 34645.6 hPa SW 65.5 km/h 65.5 km/h 72 % 0 mm 0.0 W/m2 CLR
02:23 -12.6 °C -15.1 °C 34645.6 hPa SW 59.5 km/h 59.5 km/h 73 % 0 mm 0.0 W/m2 CLR
02:25 -12.6 °C -15.1 °C 34645.6 hPa SW 65.5 km/h 65.5 km/h 73 % 0 mm 0.0 W/m2 CLR
02:30 -12.6 °C -15.1 °C 34645.6 hPa WSW 67.3 km/h 67.3 km/h 73 % 0 mm 0.0 W/m2 CLR
02:35 -12.6 °C -15.1 °C 34645.6 hPa SW 74.5 km/h 74.5 km/h 73 % 0 mm 0.0 W/m2 CLR
02:37 -12.6 °C -15.1 °C 34645.6 hPa SW 74.5 km/h 74.5 km/h 73 % 0 mm 0.0 W/m2 CLR
02:42 -12.6 °C -15.1 °C 34645.6 hPa SW 59.5 km/h 59.5 km/h 73 % 0 mm 0.0 W/m2 CLR
02:47 -12.8 °C -15.3 °C 34645.6 hPa WSW 62.6 km/h 62.6 km/h 74 % 0 mm 0.0 W/m2 CLR
02:52 -12.8 °C -15.3 °C 34645.6 hPa SW 68.6 km/h 68.6 km/h 74 % 0 mm 0.0 W/m2 CLR
02:57 -12.6 °C -14.9 °C 34645.6 hPa SW 74.5 km/h 74.5 km/h 74 % 0 mm 0.0 W/m2 CLR
03:02 -12.8 °C -15.3 °C 34645.6 hPa SW 56.6 km/h 56.6 km/h 74 % 0 mm 0.0 W/m2 CLR
03:07 -12.8 °C -15.3 °C 34645.6 hPa SSW 68.6 km/h 68.6 km/h 74 % 0 mm 0.0 W/m2 CLR
03:12 -12.8 °C -15.3 °C 34645.6 hPa SW 62.6 km/h 62.6 km/h 74 % 0 mm 0.0 W/m2 CLR
03:17 -12.8 °C -15.3 °C 34645.6 hPa SW 50.7 km/h 50.7 km/h 74 % 0 mm 0.0 W/m2 CLR
03:22 -12.8 °C -15.3 °C 34645.6 hPa WSW 50.7 km/h 50.7 km/h 74 % 0 mm 0.0 W/m2 CLR
03:27 -12.8 °C -15.2 °C 34645.6 hPa SW 47.6 km/h 47.6 km/h 75 % 0 mm 0.0 W/m2 CLR
03:32 -12.8 °C -15.2 °C 34645.6 hPa SW 50.7 km/h 50.7 km/h 75 % 0 mm 0.0 W/m2 CLR
03:37 -12.8 °C -15.2 °C 34645.6 hPa SW 47.6 km/h 47.6 km/h 75 % 0 mm 0.0 W/m2 CLR
03:42 -12.8 °C -15.2 °C 34635.4 hPa SW 41.4 km/h 41.4 km/h 75 % 0 mm 0.0 W/m2 CLR
03:47 -12.8 °C -15.2 °C 34635.4 hPa SSW 56.6 km/h 56.6 km/h 75 % 0 mm 0.0 W/m2 CLR
03:52 -12.8 °C -15.2 °C 34635.4 hPa SSW 56.6 km/h 56.6 km/h 75 % 0 mm 0.0 W/m2 CLR
03:57 -12.8 °C -15.3 °C 34635.4 hPa SW 47.6 km/h 47.6 km/h 74 % 0 mm 0.0 W/m2 CLR
04:02 -12.8 °C -15.3 °C 34635.4 hPa SW 62.6 km/h 62.6 km/h 74 % 0 mm 0.0 W/m2 CLR
04:07 -12.8 °C -15.4 °C 34635.4 hPa WSW 56.6 km/h 56.6 km/h 73 % 0 mm 0.0 W/m2 CLR
04:13 -12.8 °C -15.4 °C 34635.4 hPa SW 68.6 km/h 68.6 km/h 73 % 0 mm 0.0 W/m2 CLR
04:18 -12.8 °C -15.5 °C 34635.4 hPa SSW 56.6 km/h 56.6 km/h 72 % 0 mm 0.0 W/m2 CLR
04:20 -12.8 °C -15.5 °C 34635.4 hPa SSW 59.5 km/h 59.5 km/h 72 % 0 mm 0.0 W/m2 CLR
04:21 -12.8 °C -15.5 °C 34635.4 hPa SSW 65.5 km/h 65.5 km/h 72 % 0 mm 0.0 W/m2 CLR
04:24 -12.8 °C -15.5 °C 34635.4 hPa WSW 62.6 km/h 62.6 km/h 72 % 0 mm 0.0 W/m2 CLR
04:26 -12.8 °C -15.5 °C 34635.4 hPa SW 57 km/h 57 km/h 72 % 0 mm 0.0 W/m2 CLR
04:28 -13.2 °C -15.9 °C 34635.4 hPa SSW 68.6 km/h 68.6 km/h 71 % 0 mm 0.0 W/m2 CLR
04:31 -12.8 °C -15.6 °C 34645.6 hPa SW 65.5 km/h 65.5 km/h 71 % 0 mm 0.0 W/m2 CLR
04:36 -12.8 °C -15.6 °C 34635.4 hPa WSW 75.2 km/h 75.2 km/h 71 % 0 mm 0.0 W/m2 CLR
04:41 -12.8 °C -15.6 °C 34635.4 hPa SW 62.1 km/h 62.1 km/h 71 % 0 mm 0.0 W/m2 CLR
04:46 -12.8 °C -15.5 °C 34635.4 hPa WSW 62.6 km/h 62.6 km/h 72 % 0 mm 0.0 W/m2 CLR
04:51 -12.8 °C -15.5 °C 34635.4 hPa WSW 53.6 km/h 53.6 km/h 72 % 0 mm 0.0 W/m2 CLR
04:56 -13.2 °C -15.8 °C 34635.4 hPa SW 74.5 km/h 74.5 km/h 72 % 0 mm 0.0 W/m2 CLR
05:01 -13.2 °C -15.8 °C 34635.4 hPa WSW 68.6 km/h 68.6 km/h 72 % 0 mm 0.0 W/m2 CLR
05:06 -12.8 °C -15.5 °C 34635.4 hPa SW 59.5 km/h 59.5 km/h 72 % 0 mm 0.0 W/m2 CLR
05:11 -13.2 °C -15.8 °C 34635.4 hPa WSW 56.6 km/h 56.6 km/h 72 % 0 mm 0.0 W/m2 CLR
05:16 -13.2 °C -15.8 °C 34645.6 hPa SW 44.7 km/h 44.7 km/h 72 % 0 mm 0.0 W/m2 CLR
05:21 -13.2 °C -15.8 °C 34645.6 hPa SW 47.6 km/h 47.6 km/h 72 % 0 mm 0.0 W/m2 CLR
05:26 -13.2 °C -15.8 °C 34645.6 hPa WSW 59.5 km/h 59.5 km/h 72 % 0 mm 0.0 W/m2 CLR
05:31 -13.2 °C -15.8 °C 34645.6 hPa SW 53.6 km/h 53.6 km/h 72 % 0 mm 0.0 W/m2 CLR
05:36 -13.2 °C -15.7 °C 34645.6 hPa SW 71.5 km/h 71.5 km/h 73 % 0 mm 0.0 W/m2 CLR
05:41 -13.2 °C -15.7 °C 34645.6 hPa West 51.8 km/h 51.8 km/h 73 % 0 mm 0.0 W/m2 CLR
05:46 -13.2 °C -15.8 °C 34645.6 hPa SW 62.6 km/h 62.6 km/h 72 % 0 mm 0.0 W/m2 CLR
05:51 -13.2 °C -15.7 °C 34645.6 hPa West 65.5 km/h 65.5 km/h 73 % 0 mm 0.0 W/m2 CLR
05:56 -13.2 °C -15.7 °C 34645.6 hPa WSW 65.5 km/h 65.5 km/h 73 % 0 mm 0.0 W/m2 CLR
06:01 -13.2 °C -15.7 °C 34645.6 hPa SW 56.6 km/h 56.6 km/h 73 % 0 mm 0.0 W/m2 CLR
06:06 -13.2 °C -15.7 °C 34645.6 hPa WSW 56.6 km/h 56.6 km/h 73 % 0 mm 0.0 W/m2 CLR
06:11 -13.2 °C -15.7 °C 34645.6 hPa SW 68.6 km/h 68.6 km/h 73 % 0 mm 0.0 W/m2 CLR
06:16 -13.2 °C -15.8 °C 34645.6 hPa SW 68.6 km/h 68.6 km/h 72 % 0 mm 0.0 W/m2 CLR
06:21 -13.2 °C -15.8 °C 34659.1 hPa SSW 65.5 km/h 65.5 km/h 72 % 0 mm 0.0 W/m2 CLR
06:26 -13.2 °C -15.8 °C 34645.6 hPa WSW 68.6 km/h 68.6 km/h 72 % 0 mm 0.0 W/m2 CLR
06:31 -13.2 °C -15.8 °C 34645.6 hPa WSW 62.6 km/h 62.6 km/h 72 % 0 mm 0.0 W/m2 CLR
06:36 -13.2 °C -15.9 °C 34645.6 hPa SW 68.6 km/h 68.6 km/h 71 % 0 mm 0.0 W/m2 CLR
06:41 -13.2 °C -15.9 °C 34645.6 hPa SW 56.6 km/h 56.6 km/h 71 % 0 mm 0.0 W/m2 CLR
06:46 -13.2 °C -15.9 °C 34645.6 hPa WSW 53.6 km/h 53.6 km/h 71 % 0 mm 0.0 W/m2 CLR
06:51 -13.2 °C -15.9 °C 34645.6 hPa WSW 68.6 km/h 68.6 km/h 71 % 0 mm 0.0 W/m2 CLR
06:56 -13.2 °C -15.9 °C 34645.6 hPa West 56.6 km/h 56.6 km/h 71 % 0 mm 0.0 W/m2 CLR
07:01 -13.2 °C -15.9 °C 34645.6 hPa SW 74.5 km/h 74.5 km/h 71 % 0 mm 0.0 W/m2 CLR
07:06 -13.2 °C -15.9 °C 34645.6 hPa WSW 68.6 km/h 68.6 km/h 71 % 0 mm 0.0 W/m2 CLR
07:11 -13.2 °C -15.9 °C 34645.6 hPa WSW 64.7 km/h 64.7 km/h 71 % 0 mm 0.0 W/m2 CLR
07:16 -13.2 °C -15.9 °C 34645.6 hPa SW 68.6 km/h 68.6 km/h 71 % 0 mm 0.0 W/m2 CLR
07:21 -13.2 °C -15.9 °C 34645.6 hPa SW 62.6 km/h 62.6 km/h 71 % 0 mm 0.0 W/m2 CLR
07:26 -13.2 °C -15.9 °C 34659.1 hPa SW 59.5 km/h 59.5 km/h 71 % 0 mm 0.0 W/m2 CLR
07:31 -13.2 °C -15.9 °C 34659.1 hPa WSW 57 km/h 57 km/h 71 % 0 mm 0.0 W/m2 OVC
07:36 -13.2 °C -15.9 °C 34659.1 hPa SW 62.6 km/h 62.6 km/h 71 % 0 mm 0.0 W/m2 OVC
07:41 -13.2 °C -15.9 °C 34659.1 hPa SW 50.7 km/h 50.7 km/h 71 % 0 mm 7.0 W/m2 OVC
07:46 -13.2 °C -15.9 °C 34659.1 hPa SW 65.5 km/h 65.5 km/h 71 % 0 mm 9.0 W/m2 OVC
07:51 -13.2 °C -15.9 °C 34659.1 hPa WSW 68.6 km/h 68.6 km/h 71 % 0 mm 11.0 W/m2 OVC
07:56 -13.4 °C -16.1 °C 34659.1 hPa WSW 74.5 km/h 74.5 km/h 72 % 0 mm 14.0 W/m2 OVC
08:01 -13.2 °C -15.8 °C 34669.3 hPa SW 65.5 km/h 65.5 km/h 72 % 0 mm 16.0 W/m2 OVC
08:06 -13.2 °C -15.8 °C 34669.3 hPa WSW 62.6 km/h 62.6 km/h 72 % 0 mm 19.0 W/m2 OVC
08:11 -13.2 °C -15.9 °C 34669.3 hPa SW 68.6 km/h 68.6 km/h 71 % 0 mm 30.0 W/m2 OVC
08:16 -13.2 °C -15.8 °C 34669.3 hPa WSW 80.5 km/h 80.5 km/h 72 % 0 mm 39.0 W/m2 OVC
08:21 -13.2 °C -15.9 °C 34669.3 hPa WSW 89.3 km/h 89.3 km/h 71 % 0 mm 49.0 W/m2 OVC
08:26 -13.2 °C -15.9 °C 34669.3 hPa WSW 72.6 km/h 72.6 km/h 71 % 0 mm 63.0 W/m2 OVC
08:31 -13.2 °C -15.9 °C 34669.3 hPa SW 67.3 km/h 67.3 km/h 71 % 0 mm 79.0 W/m2 OVC
08:36 -13.2 °C -15.9 °C 34669.3 hPa WSW 56.6 km/h 56.6 km/h 71 % 0 mm 93.0 W/m2 OVC
08:41 -12.8 °C -15.6 °C 34669.3 hPa WSW 68.6 km/h 68.6 km/h 71 % 0 mm 107.0 W/m2 BKN
08:46 -12.8 °C -15.7 °C 34669.3 hPa WSW 68.6 km/h 68.6 km/h 70 % 0 mm 113.0 W/m2 CLR
08:51 -12.8 °C -15.7 °C 34669.3 hPa SW 65.5 km/h 65.5 km/h 70 % 0 mm 135.0 W/m2 CLR
08:56 -12.8 °C -15.8 °C 34669.3 hPa SW 71.5 km/h 71.5 km/h 69 % 0 mm 158.0 W/m2 CLR
09:01 -12.8 °C -15.8 °C 34669.3 hPa West 53.6 km/h 53.6 km/h 69 % 0 mm 114.0 W/m2 CLR
09:06 -12.8 °C -15.9 °C 34682.8 hPa SW 68.6 km/h 68.6 km/h 68 % 0 mm 156.0 W/m2 CLR
09:11 -12.6 °C -15.8 °C 34682.8 hPa WSW 65.5 km/h 65.5 km/h 67 % 0 mm 178.0 W/m2 CLR
09:16 -12.6 °C -15.8 °C 34682.8 hPa West 74.5 km/h 74.5 km/h 67 % 0 mm 202.0 W/m2 CLR
09:21 -12.6 °C -16 °C 34682.8 hPa WSW 89.3 km/h 89.3 km/h 65 % 0 mm 241.0 W/m2 CLR
09:26 -12.6 °C -16 °C 34669.3 hPa WSW 59.5 km/h 59.5 km/h 65 % 0 mm 253.0 W/m2 CLR
09:31 -12.6 °C -16.2 °C 34682.8 hPa WSW 65.5 km/h 65.5 km/h 64 % 0 mm 267.0 W/m2 CLR
09:36 -12.2 °C -15.8 °C 34669.3 hPa West 86.4 km/h 86.4 km/h 64 % 0 mm 281.0 W/m2 CLR
09:41 -12.2 °C -15.8 °C 34682.8 hPa WSW 82.9 km/h 82.9 km/h 64 % 0 mm 295.0 W/m2 CLR
09:46 -12.2 °C -15.9 °C 34682.8 hPa WSW 69.8 km/h 69.8 km/h 63 % 0 mm 306.0 W/m2 CLR
09:51 -12.2 °C -15.9 °C 34669.3 hPa WSW 54.4 km/h 54.4 km/h 63 % 0 mm 318.0 W/m2 CLR
09:56 -11.9 °C -15.8 °C 34669.3 hPa WSW 83.4 km/h 83.4 km/h 62 % 0 mm 329.0 W/m2 CLR
10:01 -11.9 °C -15.9 °C 34669.3 hPa West 77.4 km/h 77.4 km/h 61 % 0 mm 343.0 W/m2 CLR
10:06 -11.9 °C -15.9 °C 34669.3 hPa WSW 80.5 km/h 80.5 km/h 61 % 0 mm 353.0 W/m2 CLR
10:11 -11.9 °C -15.8 °C 34669.3 hPa WSW 80.5 km/h 80.5 km/h 62 % 0 mm 367.0 W/m2 CLR
10:16 -11.6 °C -15.5 °C 34669.3 hPa SW 80.3 km/h 80.3 km/h 62 % 0 mm 381.0 W/m2 CLR
10:21 -11.6 °C -15.8 °C 34669.3 hPa West 68.6 km/h 68.6 km/h 60 % 0 mm 383.0 W/m2 CLR
10:26 -11.9 °C -16.1 °C 34669.3 hPa WSW 80.5 km/h 80.5 km/h 60 % 0 mm 406.0 W/m2 CLR
10:31 -11.6 °C -15.6 °C 34669.3 hPa WNW 80.5 km/h 80.5 km/h 61 % 0 mm 417.0 W/m2 CLR
10:36 -11.6 °C -15.8 °C 34669.3 hPa SSW 74.5 km/h 74.5 km/h 60 % 0 mm 443.0 W/m2 CLR
10:41 -11.6 °C -16 °C 34669.3 hPa WSW 69.8 km/h 69.8 km/h 58 % 0 mm 438.0 W/m2 CLR
10:46 -11.6 °C -16 °C 34669.3 hPa WSW 68.6 km/h 68.6 km/h 58 % 0 mm 454.0 W/m2 CLR
10:51 -11.3 °C -15.9 °C 34669.3 hPa WSW 89.3 km/h 89.3 km/h 57 % 0 mm 478.0 W/m2 CLR
10:56 -11.3 °C -15.7 °C 34682.8 hPa West 57 km/h 57 km/h 58 % 0 mm 563.0 W/m2 CLR
11:01 -11.3 °C -15.7 °C 34669.3 hPa WSW 68.6 km/h 68.6 km/h 58 % 0 mm 190.0 W/m2 CLR
11:06 -11.3 °C -16 °C 34669.3 hPa WSW 67.3 km/h 67.3 km/h 56 % 0 mm 510.0 W/m2 CLR
11:11 -11.3 °C -15.9 °C 34669.3 hPa SW 68.6 km/h 68.6 km/h 57 % 0 mm 522.0 W/m2 CLR
11:16 -11 °C -15.7 °C 34669.3 hPa SW 80.5 km/h 80.5 km/h 56 % 0 mm 554.0 W/m2 CLR
11:21 -11 °C -15.7 °C 34669.3 hPa WSW 86.4 km/h 86.4 km/h 56 % 0 mm 573.0 W/m2 CLR
11:26 -11 °C -15.6 °C 34669.3 hPa West 80.5 km/h 80.5 km/h 57 % 0 mm 613.0 W/m2 CLR
11:31 -11 °C -15.9 °C 34669.3 hPa West 80.5 km/h 80.5 km/h 55 % 0 mm 211.0 W/m2 CLR
11:36 -11.3 °C -15.9 °C 34669.3 hPa WSW 77.4 km/h 77.4 km/h 57 % 0 mm 659.0 W/m2 CLR
11:41 -11 °C -15.7 °C 34669.3 hPa West 75.2 km/h 75.2 km/h 56 % 0 mm 650.0 W/m2 CLR
11:46 -11 °C -15.6 °C 34669.3 hPa WSW 71.5 km/h 71.5 km/h 57 % 0 mm 155.0 W/m2 CLR
11:51 -11.3 °C -15.7 °C 34669.3 hPa SW 62.6 km/h 62.6 km/h 58 % 0 mm 649.0 W/m2 CLR
11:56 -11 °C -15.7 °C 34659.1 hPa WSW 68.6 km/h 68.6 km/h 56 % 0 mm 244.0 W/m2 CLR
12:01 -11 °C -15.7 °C 34659.1 hPa WSW 65.5 km/h 65.5 km/h 56 % 0 mm 612.0 W/m2 CLR
12:06 -11.3 °C -16.2 °C 34659.1 hPa West 80.5 km/h 80.5 km/h 55 % 0 mm 121.0 W/m2 CLR
12:11 -11 °C -15.7 °C 34659.1 hPa SW 74.5 km/h 74.5 km/h 56 % 0 mm 169.0 W/m2 CLR
12:16 -11 °C -15.7 °C 34659.1 hPa WSW 72.6 km/h 72.6 km/h 56 % 0 mm 272.0 W/m2 CLR
12:21 -10.7 °C -15.6 °C 34645.6 hPa SW 59.5 km/h 59.5 km/h 55 % 0 mm 621.0 W/m2 CLR
12:26 -11 °C -16 °C 34645.6 hPa West 74.5 km/h 74.5 km/h 54 % 0 mm 98.0 W/m2 CLR
12:31 -11.3 °C -16 °C 34645.6 hPa West 56.6 km/h 56.6 km/h 56 % 0 mm 200.0 W/m2 CLR
12:36 -11 °C -15.7 °C 34645.6 hPa WSW 83.4 km/h 83.4 km/h 56 % 0 mm 638.0 W/m2 CLR
12:41 -10.7 °C -15.6 °C 34635.4 hPa WSW 71.5 km/h 71.5 km/h 55 % 0 mm 638.0 W/m2 CLR
12:46 -10.7 °C -15.6 °C 34625.2 hPa West 68.6 km/h 68.6 km/h 55 % 0 mm 118.0 W/m2 CLR
12:51 -11 °C -15.7 °C 34625.2 hPa WSW 80.5 km/h 80.5 km/h 56 % 0 mm 577.0 W/m2 CLR
12:56 -10.7 °C -15.6 °C 34611.7 hPa WSW 86.4 km/h 86.4 km/h 55 % 0 mm 582.0 W/m2 CLR
13:01 -10.4 °C -15.3 °C 34625.2 hPa WSW 62.6 km/h 62.6 km/h 55 % 0 mm 633.0 W/m2 CLR
13:06 -10.4 °C -15.7 °C 34625.2 hPa WSW 83.4 km/h 83.4 km/h 52 % 0 mm 596.0 W/m2 CLR
13:11 -10.7 °C -15.9 °C 34611.7 hPa SW 80.3 km/h 80.3 km/h 53 % 0 mm 603.0 W/m2 CLR
13:16 -10.7 °C -15.9 °C 34625.2 hPa WSW 77.4 km/h 77.4 km/h 53 % 0 mm 109.0 W/m2 CLR
13:21 -11 °C -16 °C 34611.7 hPa WSW 67.3 km/h 67.3 km/h 54 % 0 mm 105.0 W/m2 CLR
13:26 -10.7 °C -15.7 °C 34611.7 hPa SW 80.5 km/h 80.5 km/h 54 % 0 mm 606.0 W/m2 CLR
13:31 -10.7 °C -15.9 °C 34601.5 hPa WSW 64.7 km/h 64.7 km/h 53 % 0 mm 114.0 W/m2 CLR
13:36 -10.7 °C -15.9 °C 34601.5 hPa West 71.5 km/h 71.5 km/h 53 % 0 mm 578.0 W/m2 CLR
13:41 -10.7 °C -16 °C 34601.5 hPa West 98.3 km/h 98.3 km/h 52 % 0 mm 529.0 W/m2 CLR
13:46 -10.4 °C -15.7 °C 34591.4 hPa WSW 77.4 km/h 77.4 km/h 52 % 0 mm 541.0 W/m2 CLR
13:51 -10.4 °C -15.7 °C 34591.4 hPa SW 65.5 km/h 65.5 km/h 52 % 0 mm 520.0 W/m2 CLR
13:56 -10.1 °C -15.8 °C 34591.4 hPa West 74.5 km/h 74.5 km/h 50 % 0 mm 522.0 W/m2 CLR
14:02 -10.4 °C -15.9 °C 34591.4 hPa SW 56.6 km/h 56.6 km/h 51 % 0 mm 554.0 W/m2 CLR
14:06 -10.4 °C -16.1 °C 34591.4 hPa WSW 56.6 km/h 56.6 km/h 50 % 0 mm 547.0 W/m2 CLR
14:11 -10.4 °C -16.1 °C 34591.4 hPa WSW 86.4 km/h 86.4 km/h 50 % 0 mm 513.0 W/m2 CLR
14:17 -10.4 °C -16.1 °C 34591.4 hPa West 90.6 km/h 90.6 km/h 50 % 0 mm 541.0 W/m2 CLR
14:21 -10.1 °C -15.8 °C 34591.4 hPa SW 71.5 km/h 71.5 km/h 50 % 0 mm 492.0 W/m2 CLR
14:27 -10.4 °C -16.1 °C 34591.4 hPa WSW 68.6 km/h 68.6 km/h 50 % 0 mm 483.0 W/m2 CLR
14:32 -10.4 °C -16.2 °C 34591.4 hPa WSW 71.5 km/h 71.5 km/h 49 % 0 mm 482.0 W/m2 CLR
14:37 -10.1 °C -15.8 °C 34591.4 hPa SW 89.3 km/h 89.3 km/h 50 % 0 mm 494.0 W/m2 CLR
14:42 -10.4 °C -16.1 °C 34591.4 hPa WSW 72.6 km/h 72.6 km/h 50 % 0 mm 471.0 W/m2 CLR
14:47 -10.4 °C -16.2 °C 34591.4 hPa WSW 83.4 km/h 83.4 km/h 49 % 0 mm 105.0 W/m2 CLR
14:52 -10.4 °C -16.2 °C 34577.8 hPa WSW 92.4 km/h 92.4 km/h 49 % 0 mm 227.0 W/m2 CLR
14:57 -10.4 °C -16.2 °C 34577.8 hPa WSW 56.6 km/h 56.6 km/h 49 % 0 mm 383.0 W/m2 CLR
15:07 -10.4 °C -16.3 °C 34577.8 hPa West 68.6 km/h 68.6 km/h 48 % 0 mm 69.0 W/m2 CLR
15:12 -10.7 °C -16.6 °C 34577.8 hPa WSW 80.5 km/h 80.5 km/h 48 % 0 mm 155.0 W/m2 CLR
15:17 -10.7 °C -16.5 °C 34577.8 hPa WSW 71.5 km/h 71.5 km/h 49 % 0 mm 403.0 W/m2 CLR
15:22 -10.4 °C -16.6 °C 34567.7 hPa SW 62.6 km/h 62.6 km/h 47 % 0 mm 387.0 W/m2 CLR
15:27 -10.4 °C -16.3 °C 34567.7 hPa SW 62.6 km/h 62.6 km/h 48 % 0 mm 387.0 W/m2 CLR
15:32 -10.4 °C -16.3 °C 34567.7 hPa SW 92.4 km/h 92.4 km/h 48 % 0 mm 367.0 W/m2 CLR
15:37 -10.4 °C -16.7 °C 34567.7 hPa WSW 92.4 km/h 92.4 km/h 46 % 0 mm 339.0 W/m2 CLR
15:42 -10.4 °C -16.9 °C 34554.1 hPa West 74.5 km/h 74.5 km/h 45 % 0 mm 318.0 W/m2 CLR
15:47 -10.7 °C -17 °C 34554.1 hPa SW 71.5 km/h 71.5 km/h 46 % 0 mm 302.0 W/m2 CLR
15:48 -10.7 °C -17 °C 34554.1 hPa WSW 74.5 km/h 74.5 km/h 46 % 0 mm 297.0 W/m2 CLR
15:53 -10.4 °C -16.7 °C 34554.1 hPa WSW 98.3 km/h 98.3 km/h 46 % 0 mm 287.0 W/m2 CLR
15:58 -10.4 °C -16.7 °C 34554.1 hPa WSW 92.4 km/h 92.4 km/h 46 % 0 mm 272.0 W/m2 CLR
16:03 -10.7 °C -17.2 °C 34554.1 hPa SW 98.3 km/h 98.3 km/h 45 % 0 mm 250.0 W/m2 CLR
16:08 -10.7 °C -17.2 °C 34554.1 hPa WSW 86.4 km/h 86.4 km/h 45 % 0 mm 227.0 W/m2 CLR
16:13 -11 °C -17.3 °C 34554.1 hPa SW 90.6 km/h 90.6 km/h 46 % 0 mm 56.0 W/m2 CLR
16:18 -11 °C -16.9 °C 34554.1 hPa WSW 80.5 km/h 80.5 km/h 48 % 0 mm 44.0 W/m2 SCT
16:23 -11 °C -16.9 °C 34554.1 hPa West 64.7 km/h 64.7 km/h 48 % 0 mm 197.0 W/m2 FEW
16:28 -11 °C -17.1 °C 34554.1 hPa WSW 65.5 km/h 65.5 km/h 47 % 0 mm 54.0 W/m2 CLR
16:33 -11 °C -16.9 °C 34554.1 hPa WSW 77.7 km/h 77.7 km/h 48 % 0 mm 95.0 W/m2 FEW
16:35 -11 °C -16.9 °C 34554.1 hPa WSW 77.4 km/h 77.4 km/h 48 % 0 mm 93.0 W/m2 FEW
16:40 -11.3 °C -17.1 °C 34567.7 hPa WSW 80.5 km/h 80.5 km/h 49 % 0 mm 132.0 W/m2 FEW
16:45 -11 °C -16.6 °C 34554.1 hPa WSW 80.5 km/h 80.5 km/h 50 % 0 mm 93.0 W/m2 FEW
16:50 -11.3 °C -16.9 °C 34554.1 hPa SSW 77.4 km/h 77.4 km/h 50 % 0 mm 95.0 W/m2 BKN
17:00 -11.3 °C -16.8 °C 34567.7 hPa SW 86.4 km/h 86.4 km/h 51 % 0 mm 30.0 W/m2 BKN
17:05 -11.3 °C -16.6 °C 34567.7 hPa SW 83.4 km/h 83.4 km/h 52 % 0 mm 62.0 W/m2 SCT
17:10 -11.3 °C -16.8 °C 34554.1 hPa West 92.4 km/h 92.4 km/h 51 % 0 mm 44.0 W/m2 BKN
17:15 -11.6 °C -17.2 °C 34567.7 hPa West 75.2 km/h 75.2 km/h 50 % 0 mm 28.0 W/m2 BKN
17:20 -11.6 °C -17.2 °C 34567.7 hPa West 65.5 km/h 65.5 km/h 50 % 0 mm 23.0 W/m2 BKN
17:22 -11.6 °C -17.2 °C 34554.1 hPa WSW 50.7 km/h 50.7 km/h 50 % 0 mm 23.0 W/m2 BKN
17:27 -11.6 °C -17.2 °C 34554.1 hPa WSW 77.4 km/h 77.4 km/h 50 % 0 mm 18.0 W/m2 BKN
17:32 -11.6 °C -17.1 °C 34554.1 hPa WSW 74.5 km/h 74.5 km/h 51 % 0 mm 14.0 W/m2 BKN
17:37 -11.6 °C -17.1 °C 34554.1 hPa West 53.6 km/h 53.6 km/h 51 % 0 mm 11.0 W/m2 BKN
17:42 -11.9 °C -17.3 °C 34567.7 hPa SSW 53.6 km/h 53.6 km/h 51 % 0 mm 9.0 W/m2 BKN
17:47 -11.9 °C -17.3 °C 34567.7 hPa WSW 74.5 km/h 74.5 km/h 51 % 0 mm 5.0 W/m2 OVC
17:52 -11.9 °C -17.3 °C 34567.7 hPa West 47.6 km/h 47.6 km/h 51 % 0 mm 0.0 W/m2 OVC
17:57 -11.9 °C -17.3 °C 34577.8 hPa WSW 77.4 km/h 77.4 km/h 51 % 0 mm 0.0 W/m2 OVC
18:02 -11.9 °C -17.2 °C 34577.8 hPa SW 53.6 km/h 53.6 km/h 52 % 0 mm 0.0 W/m2 CLR
18:12 -11.9 °C -17 °C 34567.7 hPa West 64.7 km/h 64.7 km/h 53 % 0 mm 0.0 W/m2 CLR
18:17 -12.2 °C -17.3 °C 34577.8 hPa WSW 68.6 km/h 68.6 km/h 53 % 0 mm 0.0 W/m2 CLR
18:22 -12.2 °C -17.2 °C 34577.8 hPa WSW 53.6 km/h 53.6 km/h 54 % 0 mm 0.0 W/m2 CLR
18:27 -12.2 °C -17.2 °C 34577.8 hPa WSW 44.7 km/h 44.7 km/h 54 % 0 mm 0.0 W/m2 CLR
18:32 -12.2 °C -16.9 °C 34577.8 hPa SW 59.5 km/h 59.5 km/h 56 % 0 mm 0.0 W/m2 CLR
18:37 -12.6 °C -17.1 °C 34577.8 hPa West 47.6 km/h 47.6 km/h 57 % 0 mm 0.0 W/m2 CLR
18:42 -12.6 °C -16.9 °C 34577.8 hPa SW 65.5 km/h 65.5 km/h 58 % 0 mm 0.0 W/m2 CLR
18:47 -12.6 °C -16.9 °C 34591.4 hPa WSW 56.6 km/h 56.6 km/h 58 % 0 mm 0.0 W/m2 CLR
18:52 -12.6 °C -16.9 °C 34577.8 hPa WSW 59.5 km/h 59.5 km/h 58 % 0 mm 0.0 W/m2 CLR
18:53 -12.6 °C -16.9 °C 34577.8 hPa WSW 59.5 km/h 59.5 km/h 58 % 0 mm 0.0 W/m2 CLR
18:58 -12.6 °C -16.9 °C 34577.8 hPa SW 68.6 km/h 68.6 km/h 58 % 0 mm 0.0 W/m2 CLR
19:03 -12.6 °C -16.8 °C 34577.8 hPa SW 59.5 km/h 59.5 km/h 59 % 0 mm 0.0 W/m2 CLR
19:08 -12.6 °C -16.8 °C 34577.8 hPa SW 68.6 km/h 68.6 km/h 59 % 0 mm 0.0 W/m2 CLR
19:13 -12.6 °C -16.8 °C 34577.8 hPa WSW 65.5 km/h 65.5 km/h 59 % 0 mm 0.0 W/m2 CLR
19:18 -12.6 °C -16.8 °C 34577.8 hPa SW 80.5 km/h 80.5 km/h 59 % 0 mm 0.0 W/m2 CLR
19:23 -12.6 °C -16.8 °C 34577.8 hPa SW 71.5 km/h 71.5 km/h 59 % 0 mm 0.0 W/m2 CLR
19:28 -12.6 °C -16.8 °C 34577.8 hPa WSW 77.7 km/h 77.7 km/h 59 % 0 mm 0.0 W/m2 CLR
19:33 -12.8 °C -16.9 °C 34577.8 hPa SW 62.6 km/h 62.6 km/h 60 % 0 mm 0.0 W/m2 CLR
19:38 -12.8 °C -16.9 °C 34577.8 hPa WSW 68.6 km/h 68.6 km/h 60 % 0 mm 0.0 W/m2 CLR
19:43 -12.8 °C -16.9 °C 34577.8 hPa West 62.6 km/h 62.6 km/h 60 % 0 mm 0.0 W/m2 CLR
19:48 -12.8 °C -16.8 °C 34577.8 hPa SW 77.4 km/h 77.4 km/h 61 % 0 mm 0.0 W/m2 CLR
19:53 -12.8 °C -16.8 °C 34577.8 hPa SW 71.5 km/h 71.5 km/h 61 % 0 mm 0.0 W/m2 CLR
19:58 -12.8 °C -16.8 °C 34567.7 hPa SW 54.4 km/h 54.4 km/h 61 % 0 mm 0.0 W/m2 CLR
20:03 -12.8 °C -16.8 °C 34567.7 hPa WSW 74.5 km/h 74.5 km/h 61 % 0 mm 0.0 W/m2 CLR
20:08 -12.8 °C -16.8 °C 34567.7 hPa SW 62.6 km/h 62.6 km/h 61 % 0 mm 0.0 W/m2 CLR
20:13 -13.2 °C -17.1 °C 34567.7 hPa SW 62.6 km/h 62.6 km/h 61 % 0 mm 0.0 W/m2 CLR
20:18 -13.2 °C -17.1 °C 34567.7 hPa WSW 77.4 km/h 77.4 km/h 61 % 0 mm 0.0 W/m2 CLR
20:23 -13.2 °C -17.1 °C 34567.7 hPa SW 56.6 km/h 56.6 km/h 61 % 0 mm 0.0 W/m2 CLR
20:28 -13.2 °C -17.1 °C 34567.7 hPa SSW 68.6 km/h 68.6 km/h 61 % 0 mm 0.0 W/m2 CLR
20:33 -13.2 °C -17.1 °C 34554.1 hPa West 59.5 km/h 59.5 km/h 61 % 0 mm 0.0 W/m2 CLR
20:38 -13.2 °C -17.1 °C 34554.1 hPa WSW 50.7 km/h 50.7 km/h 61 % 0 mm 0.0 W/m2 CLR
20:43 -13.2 °C -17 °C 34554.1 hPa WSW 80.3 km/h 80.3 km/h 62 % 0 mm 0.0 W/m2 CLR
20:48 -13.2 °C -17 °C 34567.7 hPa SW 59.5 km/h 59.5 km/h 62 % 0 mm 0.0 W/m2 CLR
20:53 -13.2 °C -17 °C 34577.8 hPa SSW 35.7 km/h 35.7 km/h 62 % 0 mm 0.0 W/m2 CLR
20:58 -13.2 °C -16.8 °C 34591.4 hPa SW 47.6 km/h 47.6 km/h 63 % 0 mm 0.0 W/m2 CLR
21:03 -13.4 °C -17.1 °C 34591.4 hPa WSW 50.7 km/h 50.7 km/h 63 % 0 mm 0.0 W/m2 CLR
21:08 -13.4 °C -17 °C 34591.4 hPa WSW 53.6 km/h 53.6 km/h 64 % 0 mm 0.0 W/m2 CLR
21:13 -13.4 °C -17 °C 34591.4 hPa SW 50.7 km/h 50.7 km/h 64 % 0 mm 0.0 W/m2 CLR
21:18 -13.4 °C -16.9 °C 34577.8 hPa SW 54.4 km/h 54.4 km/h 65 % 0 mm 0.0 W/m2 CLR
21:23 -13.4 °C -16.9 °C 34591.4 hPa WSW 50.7 km/h 50.7 km/h 65 % 0 mm 0.0 W/m2 CLR
21:28 -13.4 °C -16.9 °C 34591.4 hPa SSW 38.8 km/h 38.8 km/h 65 % 0 mm 0.0 W/m2 CLR
21:33 -13.4 °C -16.9 °C 34601.5 hPa SW 32.8 km/h 32.8 km/h 65 % 0 mm 0.0 W/m2 CLR
21:38 -13.4 °C -16.9 °C 34591.4 hPa WSW 38.8 km/h 38.8 km/h 65 % 0 mm 0.0 W/m2 CLR
21:43 -13.4 °C -16.9 °C 34591.4 hPa WSW 46.7 km/h 46.7 km/h 65 % 0 mm 0.0 W/m2 CLR
21:48 -13.4 °C -16.9 °C 34591.4 hPa WSW 53.6 km/h 53.6 km/h 65 % 0 mm 0.0 W/m2 CLR
21:53 -13.4 °C -16.9 °C 34591.4 hPa SW 62.1 km/h 62.1 km/h 65 % 0 mm 0.0 W/m2 CLR
21:58 -13.4 °C -16.9 °C 34591.4 hPa SW 47.6 km/h 47.6 km/h 65 % 0 mm 0.0 W/m2 CLR
22:08 -13.8 °C -17.1 °C 34601.5 hPa WSW 41.7 km/h 41.7 km/h 66 % 0 mm 0.0 W/m2 CLR
22:13 -13.8 °C -17.1 °C 34601.5 hPa WSW 47.6 km/h 47.6 km/h 66 % 0 mm 0.0 W/m2 CLR
22:18 -13.8 °C -17.1 °C 34591.4 hPa SW 38.8 km/h 38.8 km/h 66 % 0 mm 0.0 W/m2 CLR
22:23 -13.8 °C -16.9 °C 34601.5 hPa SW 35.7 km/h 35.7 km/h 67 % 0 mm 0.0 W/m2 CLR
22:28 -13.8 °C -16.9 °C 34601.5 hPa SW 29.8 km/h 29.8 km/h 67 % 0 mm 0.0 W/m2 CLR
22:33 -13.8 °C -16.9 °C 34611.7 hPa SW 33.6 km/h 33.6 km/h 67 % 0 mm 0.0 W/m2 CLR
22:38 -13.8 °C -16.8 °C 34611.7 hPa SW 44.7 km/h 44.7 km/h 68 % 0 mm 0.0 W/m2 CLR
22:43 -13.8 °C -16.8 °C 34601.5 hPa WSW 49.2 km/h 49.2 km/h 68 % 0 mm 0.0 W/m2 CLR
22:48 -13.8 °C -16.8 °C 34601.5 hPa SW 35.7 km/h 35.7 km/h 68 % 0 mm 0.0 W/m2 CLR
22:53 -13.8 °C -16.7 °C 34601.5 hPa SW 41.7 km/h 41.7 km/h 69 % 0 mm 0.0 W/m2 CLR
22:58 -14.1 °C -17 °C 34601.5 hPa West 47.6 km/h 47.6 km/h 69 % 0 mm 0.0 W/m2 CLR
23:03 -14.1 °C -17 °C 34601.5 hPa SW 41.7 km/h 41.7 km/h 69 % 0 mm 0.0 W/m2 CLR
23:08 -14.1 °C -17 °C 34601.5 hPa WSW 50.7 km/h 50.7 km/h 69 % 0 mm 0.0 W/m2 CLR
23:13 -14.1 °C -17 °C 34591.4 hPa SW 44.1 km/h 44.1 km/h 69 % 0 mm 0.0 W/m2 CLR
23:18 -14.1 °C -17 °C 34601.5 hPa SW 41.4 km/h 41.4 km/h 69 % 0 mm 0.0 W/m2 CLR
23:23 -14.1 °C -17 °C 34601.5 hPa SW 44.7 km/h 44.7 km/h 69 % 0 mm 0.0 W/m2 CLR
23:28 -14.1 °C -17 °C 34601.5 hPa SW 38.8 km/h 38.8 km/h 69 % 0 mm 0.0 W/m2 CLR
23:33 -14.1 °C -17 °C 34591.4 hPa SW 38.8 km/h 38.8 km/h 69 % 0 mm 0.0 W/m2 CLR
23:38 -14.1 °C -16.9 °C 34591.4 hPa SW 47.6 km/h 47.6 km/h 70 % 0 mm 0.0 W/m2 CLR
23:44 -14.1 °C -16.9 °C 34601.5 hPa SW 50.7 km/h 50.7 km/h 70 % 0 mm 0.0 W/m2 CLR
23:49 -14.1 °C -16.9 °C 34591.4 hPa SW 50.7 km/h 50.7 km/h 70 % 0 mm 0.0 W/m2 CLR
23:54 -14.1 °C -17 °C 34591.4 hPa SW 59.5 km/h 59.5 km/h 69 % 0 mm 0.0 W/m2 CLR
23:59 -14.1 °C -17 °C 34591.4 hPa SW 47.6 km/h 47.6 km/h 69 % 0 mm 0.0 W/m2 CLR
Lo Temps de Massalio
Compliments of Weather Underground - 1.25 mb